sensor_id;sensor_type;location;lat;lon;timestamp;P1;durP1;ratioP1;P2;durP2;ratioP2
5900;SDS011;2976;49.764;9.796;2023-06-26T00:02:13;6.03;;;5.43;;
5900;SDS011;2976;49.764;9.796;2023-06-26T00:04:41;7.30;;;6.50;;
5900;SDS011;2976;49.764;9.796;2023-06-26T00:07:07;7.00;;;6.00;;
5900;SDS011;2976;49.764;9.796;2023-06-26T00:09:33;15.10;;;6.47;;
5900;SDS011;2976;49.764;9.796;2023-06-26T00:11:59;9.27;;;6.80;;
5900;SDS011;2976;49.764;9.796;2023-06-26T00:14:25;11.73;;;6.80;;
5900;SDS011;2976;49.764;9.796;2023-06-26T00:16:51;8.10;;;6.70;;
5900;SDS011;2976;49.764;9.796;2023-06-26T00:19:16;9.73;;;7.90;;
5900;SDS011;2976;49.764;9.796;2023-06-26T00:21:43;8.10;;;7.00;;
5900;SDS011;2976;49.764;9.796;2023-06-26T00:24:13;9.13;;;6.50;;
5900;SDS011;2976;49.764;9.796;2023-06-26T00:26:39;9.70;;;6.70;;
5900;SDS011;2976;49.764;9.796;2023-06-26T00:29:04;7.83;;;7.00;;
5900;SDS011;2976;49.764;9.796;2023-06-26T00:31:30;10.70;;;7.03;;
5900;SDS011;2976;49.764;9.796;2023-06-26T00:33:56;8.97;;;7.57;;
5900;SDS011;2976;49.764;9.796;2023-06-26T00:36:21;7.47;;;6.77;;
5900;SDS011;2976;49.764;9.796;2023-06-26T00:38:51;7.70;;;6.80;;
5900;SDS011;2976;49.764;9.796;2023-06-26T00:41:17;8.70;;;6.30;;
5900;SDS011;2976;49.764;9.796;2023-06-26T00:43:42;8.10;;;7.30;;
5900;SDS011;2976;49.764;9.796;2023-06-26T00:46:08;10.53;;;6.50;;
5900;SDS011;2976;49.764;9.796;2023-06-26T00:48:36;10.17;;;7.00;;
5900;SDS011;2976;49.764;9.796;2023-06-26T00:51:02;7.63;;;5.70;;
5900;SDS011;2976;49.764;9.796;2023-06-26T00:53:27;7.60;;;6.90;;
5900;SDS011;2976;49.764;9.796;2023-06-26T00:55:53;9.07;;;7.13;;
5900;SDS011;2976;49.764;9.796;2023-06-26T00:58:20;12.87;;;7.07;;
5900;SDS011;2976;49.764;9.796;2023-06-26T01:00:48;7.30;;;6.60;;
5900;SDS011;2976;49.764;9.796;2023-06-26T01:03:15;7.93;;;7.20;;
5900;SDS011;2976;49.764;9.796;2023-06-26T01:05:40;8.13;;;7.33;;
5900;SDS011;2976;49.764;9.796;2023-06-26T01:08:06;8.50;;;7.50;;
5900;SDS011;2976;49.764;9.796;2023-06-26T01:10:33;7.83;;;7.07;;
5900;SDS011;2976;49.764;9.796;2023-06-26T01:12:58;12.43;;;8.63;;
5900;SDS011;2976;49.764;9.796;2023-06-26T01:15:24;8.20;;;7.20;;
5900;SDS011;2976;49.764;9.796;2023-06-26T01:17:50;10.40;;;7.30;;
5900;SDS011;2976;49.764;9.796;2023-06-26T01:20:16;8.70;;;6.73;;
5900;SDS011;2976;49.764;9.796;2023-06-26T01:25:35;7.13;;;6.37;;
5900;SDS011;2976;49.764;9.796;2023-06-26T01:28:05;7.73;;;6.93;;
5900;SDS011;2976;49.764;9.796;2023-06-26T01:30:32;7.33;;;6.67;;
5900;SDS011;2976;49.764;9.796;2023-06-26T01:32:59;10.37;;;6.57;;
5900;SDS011;2976;49.764;9.796;2023-06-26T01:35:26;10.43;;;7.40;;
5900;SDS011;2976;49.764;9.796;2023-06-26T01:37:52;7.50;;;6.70;;
5900;SDS011;2976;49.764;9.796;2023-06-26T01:40:18;12.87;;;6.53;;
5900;SDS011;2976;49.764;9.796;2023-06-26T01:42:43;8.83;;;7.30;;
5900;SDS011;2976;49.764;9.796;2023-06-26T01:47:46;6.50;;;5.90;;
5900;SDS011;2976;49.764;9.796;2023-06-26T01:50:18;9.43;;;6.87;;
5900;SDS011;2976;49.764;9.796;2023-06-26T01:55:52;8.47;;;6.80;;
5900;SDS011;2976;49.764;9.796;2023-06-26T01:58:22;8.13;;;6.43;;
5900;SDS011;2976;49.764;9.796;2023-06-26T02:00:50;12.93;;;6.90;;
5900;SDS011;2976;49.764;9.796;2023-06-26T02:03:15;8.23;;;7.43;;
5900;SDS011;2976;49.764;9.796;2023-06-26T02:05:41;9.30;;;7.20;;
5900;SDS011;2976;49.764;9.796;2023-06-26T02:08:08;8.37;;;7.20;;
5900;SDS011;2976;49.764;9.796;2023-06-26T02:10:34;9.43;;;7.07;;
5900;SDS011;2976;49.764;9.796;2023-06-26T02:13:00;7.93;;;6.73;;
5900;SDS011;2976;49.764;9.796;2023-06-26T02:15:25;7.90;;;7.10;;
5900;SDS011;2976;49.764;9.796;2023-06-26T02:17:51;8.10;;;7.20;;
5900;SDS011;2976;49.764;9.796;2023-06-26T02:20:16;9.30;;;6.73;;
5900;SDS011;2976;49.764;9.796;2023-06-26T02:22:42;7.80;;;6.67;;
5900;SDS011;2976;49.764;9.796;2023-06-26T02:25:11;11.70;;;7.67;;
5900;SDS011;2976;49.764;9.796;2023-06-26T02:27:37;9.10;;;6.43;;
5900;SDS011;2976;49.764;9.796;2023-06-26T02:30:03;9.83;;;6.50;;
5900;SDS011;2976;49.764;9.796;2023-06-26T02:32:29;8.10;;;7.30;;
5900;SDS011;2976;49.764;9.796;2023-06-26T02:34:55;10.30;;;7.57;;
5900;SDS011;2976;49.764;9.796;2023-06-26T02:37:20;8.40;;;6.00;;
5900;SDS011;2976;49.764;9.796;2023-06-26T02:39:46;7.87;;;6.77;;
5900;SDS011;2976;49.764;9.796;2023-06-26T02:42:12;11.50;;;7.00;;
5900;SDS011;2976;49.764;9.796;2023-06-26T02:44:37;8.33;;;6.10;;
5900;SDS011;2976;49.764;9.796;2023-06-26T02:47:03;8.13;;;7.03;;
5900;SDS011;2976;49.764;9.796;2023-06-26T02:49:29;10.60;;;7.03;;
5900;SDS011;2976;49.764;9.796;2023-06-26T02:51:54;10.67;;;7.03;;
5900;SDS011;2976;49.764;9.796;2023-06-26T02:54:20;9.10;;;6.07;;
5900;SDS011;2976;49.764;9.796;2023-06-26T02:56:45;13.50;;;6.40;;
5900;SDS011;2976;49.764;9.796;2023-06-26T02:59:11;8.73;;;6.47;;
5900;SDS011;2976;49.764;9.796;2023-06-26T03:01:36;8.00;;;6.50;;
5900;SDS011;2976;49.764;9.796;2023-06-26T03:04:02;9.20;;;7.40;;
5900;SDS011;2976;49.764;9.796;2023-06-26T03:06:27;8.20;;;6.70;;
5900;SDS011;2976;49.764;9.796;2023-06-26T03:08:53;8.57;;;6.50;;
5900;SDS011;2976;49.764;9.796;2023-06-26T03:11:19;8.60;;;6.70;;
5900;SDS011;2976;49.764;9.796;2023-06-26T03:13:44;14.33;;;7.47;;
5900;SDS011;2976;49.764;9.796;2023-06-26T03:16:10;15.00;;;7.60;;
5900;SDS011;2976;49.764;9.796;2023-06-26T03:18:35;7.90;;;6.57;;
5900;SDS011;2976;49.764;9.796;2023-06-26T03:21:01;10.73;;;7.20;;
5900;SDS011;2976;49.764;9.796;2023-06-26T03:23:27;11.90;;;8.47;;
5900;SDS011;2976;49.764;9.796;2023-06-26T03:25:53;15.43;;;7.50;;
5900;SDS011;2976;49.764;9.796;2023-06-26T03:28:18;12.73;;;8.07;;
5900;SDS011;2976;49.764;9.796;2023-06-26T03:30:44;12.20;;;7.17;;
5900;SDS011;2976;49.764;9.796;2023-06-26T03:33:10;10.57;;;6.90;;
5900;SDS011;2976;49.764;9.796;2023-06-26T03:35:36;18.20;;;7.67;;
5900;SDS011;2976;49.764;9.796;2023-06-26T03:38:03;19.10;;;7.33;;
5900;SDS011;2976;49.764;9.796;2023-06-26T03:40:29;12.37;;;5.83;;
5900;SDS011;2976;49.764;9.796;2023-06-26T03:42:55;11.40;;;7.67;;
5900;SDS011;2976;49.764;9.796;2023-06-26T03:45:20;15.37;;;7.47;;
5900;SDS011;2976;49.764;9.796;2023-06-26T03:47:46;10.57;;;7.00;;
5900;SDS011;2976;49.764;9.796;2023-06-26T03:50:14;8.17;;;6.70;;
5900;SDS011;2976;49.764;9.796;2023-06-26T03:52:42;12.63;;;6.83;;
5900;SDS011;2976;49.764;9.796;2023-06-26T03:55:08;11.57;;;7.10;;
5900;SDS011;2976;49.764;9.796;2023-06-26T03:57:34;16.70;;;7.80;;
5900;SDS011;2976;49.764;9.796;2023-06-26T03:59:59;14.40;;;6.80;;
5900;SDS011;2976;49.764;9.796;2023-06-26T04:02:25;11.30;;;7.80;;
5900;SDS011;2976;49.764;9.796;2023-06-26T04:04:51;8.40;;;7.07;;
5900;SDS011;2976;49.764;9.796;2023-06-26T04:07:17;9.80;;;7.70;;
5900;SDS011;2976;49.764;9.796;2023-06-26T04:09:46;9.63;;;7.10;;
5900;SDS011;2976;49.764;9.796;2023-06-26T04:12:11;10.27;;;7.53;;
5900;SDS011;2976;49.764;9.796;2023-06-26T04:14:38;9.10;;;6.80;;
5900;SDS011;2976;49.764;9.796;2023-06-26T04:17:04;10.33;;;7.53;;
5900;SDS011;2976;49.764;9.796;2023-06-26T04:19:29;6.80;;;6.20;;
5900;SDS011;2976;49.764;9.796;2023-06-26T04:21:55;8.47;;;7.33;;
5900;SDS011;2976;49.764;9.796;2023-06-26T04:24:21;7.83;;;7.03;;
5900;SDS011;2976;49.764;9.796;2023-06-26T04:26:47;8.80;;;6.70;;
5900;SDS011;2976;49.764;9.796;2023-06-26T04:29:12;7.70;;;5.73;;
5900;SDS011;2976;49.764;9.796;2023-06-26T04:31:38;10.10;;;5.73;;
5900;SDS011;2976;49.764;9.796;2023-06-26T04:34:04;16.07;;;6.27;;
5900;SDS011;2976;49.764;9.796;2023-06-26T04:36:30;7.67;;;5.60;;
5900;SDS011;2976;49.764;9.796;2023-06-26T04:38:56;10.67;;;5.50;;
5900;SDS011;2976;49.764;9.796;2023-06-26T04:41:22;15.27;;;5.90;;
5900;SDS011;2976;49.764;9.796;2023-06-26T04:43:48;13.43;;;6.03;;
5900;SDS011;2976;49.764;9.796;2023-06-26T04:46:13;6.00;;;5.40;;
5900;SDS011;2976;49.764;9.796;2023-06-26T04:48:39;8.43;;;5.60;;
5900;SDS011;2976;49.764;9.796;2023-06-26T04:51:04;6.43;;;5.73;;
5900;SDS011;2976;49.764;9.796;2023-06-26T04:53:30;6.13;;;5.10;;
5900;SDS011;2976;49.764;9.796;2023-06-26T04:55:55;8.27;;;5.17;;
5900;SDS011;2976;49.764;9.796;2023-06-26T04:58:21;8.13;;;5.17;;
5900;SDS011;2976;49.764;9.796;2023-06-26T05:00:47;15.67;;;5.53;;
5900;SDS011;2976;49.764;9.796;2023-06-26T05:03:13;12.30;;;6.27;;
5900;SDS011;2976;49.764;9.796;2023-06-26T05:05:42;10.93;;;5.20;;
5900;SDS011;2976;49.764;9.796;2023-06-26T05:08:18;6.63;;;6.00;;
5900;SDS011;2976;49.764;9.796;2023-06-26T05:10:45;10.43;;;5.30;;
5900;SDS011;2976;49.764;9.796;2023-06-26T05:13:11;6.30;;;5.10;;
5900;SDS011;2976;49.764;9.796;2023-06-26T05:15:40;6.03;;;5.43;;
5900;SDS011;2976;49.764;9.796;2023-06-26T05:18:07;5.70;;;5.10;;
5900;SDS011;2976;49.764;9.796;2023-06-26T05:20:33;6.40;;;5.80;;
5900;SDS011;2976;49.764;9.796;2023-06-26T05:23:01;5.47;;;4.63;;
5900;SDS011;2976;49.764;9.796;2023-06-26T05:25:30;7.60;;;6.50;;
5900;SDS011;2976;49.764;9.796;2023-06-26T05:27:56;12.63;;;6.53;;
5900;SDS011;2976;49.764;9.796;2023-06-26T05:30:23;7.63;;;5.90;;
5900;SDS011;2976;49.764;9.796;2023-06-26T05:32:53;6.40;;;5.70;;
5900;SDS011;2976;49.764;9.796;2023-06-26T05:35:21;7.40;;;5.40;;
5900;SDS011;2976;49.764;9.796;2023-06-26T05:37:48;7.13;;;6.40;;
5900;SDS011;2976;49.764;9.796;2023-06-26T05:40:15;6.93;;;6.13;;
5900;SDS011;2976;49.764;9.796;2023-06-26T05:42:42;7.10;;;6.30;;
5900;SDS011;2976;49.764;9.796;2023-06-26T05:45:08;8.37;;;6.23;;
5900;SDS011;2976;49.764;9.796;2023-06-26T05:47:34;7.10;;;6.50;;
5900;SDS011;2976;49.764;9.796;2023-06-26T05:50:00;7.37;;;6.67;;
5900;SDS011;2976;49.764;9.796;2023-06-26T05:52:26;7.43;;;6.40;;
5900;SDS011;2976;49.764;9.796;2023-06-26T05:54:52;9.37;;;7.10;;
5900;SDS011;2976;49.764;9.796;2023-06-26T05:57:18;8.77;;;7.20;;
5900;SDS011;2976;49.764;9.796;2023-06-26T05:59:44;7.50;;;6.73;;
5900;SDS011;2976;49.764;9.796;2023-06-26T06:02:11;11.07;;;6.90;;
5900;SDS011;2976;49.764;9.796;2023-06-26T06:04:37;6.47;;;5.70;;
5900;SDS011;2976;49.764;9.796;2023-06-26T06:07:03;6.40;;;5.80;;
5900;SDS011;2976;49.764;9.796;2023-06-26T06:09:28;12.83;;;6.30;;
5900;SDS011;2976;49.764;9.796;2023-06-26T06:11:54;7.73;;;6.10;;
5900;SDS011;2976;49.764;9.796;2023-06-26T06:14:19;6.63;;;6.03;;
5900;SDS011;2976;49.764;9.796;2023-06-26T06:16:45;7.70;;;5.97;;
5900;SDS011;2976;49.764;9.796;2023-06-26T06:19:11;6.20;;;5.70;;
5900;SDS011;2976;49.764;9.796;2023-06-26T06:21:38;6.63;;;5.80;;
5900;SDS011;2976;49.764;9.796;2023-06-26T06:24:04;11.00;;;5.50;;
5900;SDS011;2976;49.764;9.796;2023-06-26T06:26:31;7.17;;;6.47;;
5900;SDS011;2976;49.764;9.796;2023-06-26T06:28:57;6.27;;;5.73;;
5900;SDS011;2976;49.764;9.796;2023-06-26T06:31:22;6.90;;;6.30;;
5900;SDS011;2976;49.764;9.796;2023-06-26T06:33:48;6.37;;;5.77;;
5900;SDS011;2976;49.764;9.796;2023-06-26T06:36:13;7.53;;;6.60;;
5900;SDS011;2976;49.764;9.796;2023-06-26T06:38:42;6.93;;;5.40;;
5900;SDS011;2976;49.764;9.796;2023-06-26T06:41:08;6.33;;;5.73;;
5900;SDS011;2976;49.764;9.796;2023-06-26T06:43:34;8.37;;;5.53;;
5900;SDS011;2976;49.764;9.796;2023-06-26T06:45:59;6.47;;;5.97;;
5900;SDS011;2976;49.764;9.796;2023-06-26T06:48:25;8.30;;;5.60;;
5900;SDS011;2976;49.764;9.796;2023-06-26T06:50:50;7.60;;;5.97;;
5900;SDS011;2976;49.764;9.796;2023-06-26T06:53:17;7.40;;;6.70;;
5900;SDS011;2976;49.764;9.796;2023-06-26T06:55:45;6.87;;;6.27;;
5900;SDS011;2976;49.764;9.796;2023-06-26T06:58:11;8.33;;;6.50;;
5900;SDS011;2976;49.764;9.796;2023-06-26T07:00:36;7.00;;;6.23;;
5900;SDS011;2976;49.764;9.796;2023-06-26T07:03:02;8.33;;;7.53;;
5900;SDS011;2976;49.764;9.796;2023-06-26T07:05:27;10.97;;;6.70;;
5900;SDS011;2976;49.764;9.796;2023-06-26T07:07:53;7.37;;;6.77;;
5900;SDS011;2976;49.764;9.796;2023-06-26T07:10:19;7.20;;;6.50;;
5900;SDS011;2976;49.764;9.796;2023-06-26T07:12:44;7.07;;;6.37;;
5900;SDS011;2976;49.764;9.796;2023-06-26T07:15:10;11.80;;;6.57;;
5900;SDS011;2976;49.764;9.796;2023-06-26T07:17:35;7.77;;;7.07;;
5900;SDS011;2976;49.764;9.796;2023-06-26T07:20:03;10.00;;;6.63;;
5900;SDS011;2976;49.764;9.796;2023-06-26T07:22:33;6.80;;;6.20;;
5900;SDS011;2976;49.764;9.796;2023-06-26T07:24:59;7.70;;;6.73;;
5900;SDS011;2976;49.764;9.796;2023-06-26T07:27:25;7.17;;;6.43;;
5900;SDS011;2976;49.764;9.796;2023-06-26T07:29:50;10.93;;;7.40;;
5900;SDS011;2976;49.764;9.796;2023-06-26T07:32:16;8.00;;;7.30;;
5900;SDS011;2976;49.764;9.796;2023-06-26T07:34:42;6.40;;;5.80;;
5900;SDS011;2976;49.764;9.796;2023-06-26T07:37:07;7.50;;;6.80;;
5900;SDS011;2976;49.764;9.796;2023-06-26T07:39:33;8.70;;;6.70;;
5900;SDS011;2976;49.764;9.796;2023-06-26T07:41:58;7.97;;;6.80;;
5900;SDS011;2976;49.764;9.796;2023-06-26T07:44:27;8.30;;;7.50;;
5900;SDS011;2976;49.764;9.796;2023-06-26T07:46:52;14.13;;;5.80;;
5900;SDS011;2976;49.764;9.796;2023-06-26T07:49:18;9.83;;;7.67;;
5900;SDS011;2976;49.764;9.796;2023-06-26T07:51:43;7.90;;;7.10;;
5900;SDS011;2976;49.764;9.796;2023-06-26T07:54:09;6.80;;;6.20;;
5900;SDS011;2976;49.764;9.796;2023-06-26T07:56:35;8.70;;;7.40;;
5900;SDS011;2976;49.764;9.796;2023-06-26T07:59:21;7.37;;;6.77;;
5900;SDS011;2976;49.764;9.796;2023-06-26T08:01:48;8.50;;;7.60;;
5900;SDS011;2976;49.764;9.796;2023-06-26T08:04:14;7.47;;;6.30;;
5900;SDS011;2976;49.764;9.796;2023-06-26T08:06:39;7.37;;;6.70;;
5900;SDS011;2976;49.764;9.796;2023-06-26T08:09:05;8.30;;;7.27;;
5900;SDS011;2976;49.764;9.796;2023-06-26T08:11:32;7.60;;;6.40;;
5900;SDS011;2976;49.764;9.796;2023-06-26T08:13:58;7.37;;;6.67;;
5900;SDS011;2976;49.764;9.796;2023-06-26T08:16:24;7.20;;;6.50;;
5900;SDS011;2976;49.764;9.796;2023-06-26T08:18:49;7.97;;;6.43;;
5900;SDS011;2976;49.764;9.796;2023-06-26T08:21:15;8.07;;;7.30;;
5900;SDS011;2976;49.764;9.796;2023-06-26T08:23:40;7.77;;;6.97;;
5900;SDS011;2976;49.764;9.796;2023-06-26T08:26:06;7.73;;;6.57;;
5900;SDS011;2976;49.764;9.796;2023-06-26T08:28:31;6.93;;;5.87;;
5900;SDS011;2976;49.764;9.796;2023-06-26T08:30:57;11.07;;;7.10;;
5900;SDS011;2976;49.764;9.796;2023-06-26T08:33:22;6.77;;;6.17;;
5900;SDS011;2976;49.764;9.796;2023-06-26T08:35:48;7.27;;;6.60;;
5900;SDS011;2976;49.764;9.796;2023-06-26T08:38:15;9.40;;;7.00;;
5900;SDS011;2976;49.764;9.796;2023-06-26T08:40:40;7.83;;;7.00;;
5900;SDS011;2976;49.764;9.796;2023-06-26T08:43:06;7.17;;;6.50;;
5900;SDS011;2976;49.764;9.796;2023-06-26T08:45:31;7.90;;;6.60;;
5900;SDS011;2976;49.764;9.796;2023-06-26T08:47:58;8.67;;;6.17;;
5900;SDS011;2976;49.764;9.796;2023-06-26T08:50:25;7.17;;;6.57;;
5900;SDS011;2976;49.764;9.796;2023-06-26T08:53:04;10.97;;;6.73;;
5900;SDS011;2976;49.764;9.796;2023-06-26T08:55:52;7.00;;;6.40;;
5900;SDS011;2976;49.764;9.796;2023-06-26T08:58:19;7.10;;;6.40;;
5900;SDS011;2976;49.764;9.796;2023-06-26T09:00:45;7.87;;;7.03;;
5900;SDS011;2976;49.764;9.796;2023-06-26T09:03:10;7.43;;;6.70;;
5900;SDS011;2976;49.764;9.796;2023-06-26T09:05:38;6.30;;;5.80;;
5900;SDS011;2976;49.764;9.796;2023-06-26T09:08:04;7.50;;;6.80;;
5900;SDS011;2976;49.764;9.796;2023-06-26T09:10:30;6.77;;;6.27;;
5900;SDS011;2976;49.764;9.796;2023-06-26T09:12:55;7.53;;;6.70;;
5900;SDS011;2976;49.764;9.796;2023-06-26T09:15:26;6.57;;;5.97;;
5900;SDS011;2976;49.764;9.796;2023-06-26T09:17:55;7.07;;;6.47;;
5900;SDS011;2976;49.764;9.796;2023-06-26T09:20:22;8.57;;;6.50;;
5900;SDS011;2976;49.764;9.796;2023-06-26T09:22:48;6.67;;;6.07;;
5900;SDS011;2976;49.764;9.796;2023-06-26T09:25:14;7.70;;;6.40;;
5900;SDS011;2976;49.764;9.796;2023-06-26T09:27:40;7.73;;;7.00;;
5900;SDS011;2976;49.764;9.796;2023-06-26T09:30:08;6.87;;;5.87;;
5900;SDS011;2976;49.764;9.796;2023-06-26T09:32:37;10.20;;;6.60;;
5900;SDS011;2976;49.764;9.796;2023-06-26T09:35:03;8.97;;;6.20;;
5900;SDS011;2976;49.764;9.796;2023-06-26T09:37:29;7.23;;;5.90;;
5900;SDS011;2976;49.764;9.796;2023-06-26T09:39:55;6.07;;;5.53;;
5900;SDS011;2976;49.764;9.796;2023-06-26T09:42:22;5.90;;;5.40;;
5900;SDS011;2976;49.764;9.796;2023-06-26T09:44:48;13.30;;;5.90;;
5900;SDS011;2976;49.764;9.796;2023-06-26T09:47:20;6.47;;;5.70;;
5900;SDS011;2976;49.764;9.796;2023-06-26T09:49:46;10.10;;;6.40;;
5900;SDS011;2976;49.764;9.796;2023-06-26T09:52:15;7.73;;;6.93;;
5900;SDS011;2976;49.764;9.796;2023-06-26T09:54:42;6.37;;;5.77;;
5900;SDS011;2976;49.764;9.796;2023-06-26T09:57:10;8.00;;;6.20;;
5900;SDS011;2976;49.764;9.796;2023-06-26T09:59:43;6.27;;;5.67;;
5900;SDS011;2976;49.764;9.796;2023-06-26T10:02:10;5.80;;;5.30;;
5900;SDS011;2976;49.764;9.796;2023-06-26T10:04:36;6.23;;;5.67;;
5900;SDS011;2976;49.764;9.796;2023-06-26T10:07:04;6.00;;;5.50;;
5900;SDS011;2976;49.764;9.796;2023-06-26T10:09:31;6.23;;;5.63;;
5900;SDS011;2976;49.764;9.796;2023-06-26T10:12:00;5.60;;;5.10;;
5900;SDS011;2976;49.764;9.796;2023-06-26T10:14:47;5.50;;;5.10;;
5900;SDS011;2976;49.764;9.796;2023-06-26T10:17:15;6.40;;;5.13;;
5900;SDS011;2976;49.764;9.796;2023-06-26T10:19:44;7.70;;;5.50;;
5900;SDS011;2976;49.764;9.796;2023-06-26T10:22:11;6.10;;;5.10;;
5900;SDS011;2976;49.764;9.796;2023-06-26T10:24:42;7.00;;;5.53;;
5900;SDS011;2976;49.764;9.796;2023-06-26T10:27:10;7.07;;;6.37;;
5900;SDS011;2976;49.764;9.796;2023-06-26T10:29:49;4.67;;;4.27;;
5900;SDS011;2976;49.764;9.796;2023-06-26T10:32:24;5.77;;;5.27;;
5900;SDS011;2976;49.764;9.796;2023-06-26T10:34:51;21.43;;;5.47;;
5900;SDS011;2976;49.764;9.796;2023-06-26T10:37:18;5.33;;;4.87;;
5900;SDS011;2976;49.764;9.796;2023-06-26T10:42:16;8.53;;;4.90;;
5900;SDS011;2976;49.764;9.796;2023-06-26T10:44:44;6.07;;;5.43;;
5900;SDS011;2976;49.764;9.796;2023-06-26T10:49:56;6.53;;;5.83;;
5900;SDS011;2976;49.764;9.796;2023-06-26T10:52:40;6.17;;;5.57;;
5900;SDS011;2976;49.764;9.796;2023-06-26T10:55:08;6.30;;;4.90;;
5900;SDS011;2976;49.764;9.796;2023-06-26T10:57:34;6.60;;;5.63;;
5900;SDS011;2976;49.764;9.796;2023-06-26T11:00:10;5.70;;;5.20;;
5900;SDS011;2976;49.764;9.796;2023-06-26T11:02:47;6.67;;;5.20;;
5900;SDS011;2976;49.764;9.796;2023-06-26T11:05:28;8.20;;;5.83;;
5900;SDS011;2976;49.764;9.796;2023-06-26T11:08:09;6.10;;;5.60;;
5900;SDS011;2976;49.764;9.796;2023-06-26T11:13:19;5.80;;;5.30;;
5900;SDS011;2976;49.764;9.796;2023-06-26T11:15:45;6.47;;;5.87;;
5900;SDS011;2976;49.764;9.796;2023-06-26T11:18:12;5.87;;;5.37;;
5900;SDS011;2976;49.764;9.796;2023-06-26T11:20:38;6.03;;;5.40;;
5900;SDS011;2976;49.764;9.796;2023-06-26T11:23:04;6.23;;;4.90;;
5900;SDS011;2976;49.764;9.796;2023-06-26T11:25:35;6.60;;;5.00;;
5900;SDS011;2976;49.764;9.796;2023-06-26T11:28:05;5.37;;;4.87;;
5900;SDS011;2976;49.764;9.796;2023-06-26T11:30:34;8.93;;;4.23;;
5900;SDS011;2976;49.764;9.796;2023-06-26T11:33:03;5.43;;;4.93;;
5900;SDS011;2976;49.764;9.796;2023-06-26T11:35:31;12.63;;;5.20;;
5900;SDS011;2976;49.764;9.796;2023-06-26T11:37:57;5.90;;;5.40;;
5900;SDS011;2976;49.764;9.796;2023-06-26T11:40:25;5.80;;;5.20;;
5900;SDS011;2976;49.764;9.796;2023-06-26T11:42:57;5.30;;;4.90;;
5900;SDS011;2976;49.764;9.796;2023-06-26T11:45:23;5.43;;;4.90;;
5900;SDS011;2976;49.764;9.796;2023-06-26T11:47:49;6.77;;;5.00;;
5900;SDS011;2976;49.764;9.796;2023-06-26T11:50:15;5.23;;;4.70;;
5900;SDS011;2976;49.764;9.796;2023-06-26T11:52:44;7.23;;;5.43;;
5900;SDS011;2976;49.764;9.796;2023-06-26T11:55:10;6.50;;;5.20;;
5900;SDS011;2976;49.764;9.796;2023-06-26T11:57:36;14.03;;;5.60;;
5900;SDS011;2976;49.764;9.796;2023-06-26T12:00:14;7.73;;;5.87;;
5900;SDS011;2976;49.764;9.796;2023-06-26T12:02:41;11.43;;;5.90;;
5900;SDS011;2976;49.764;9.796;2023-06-26T12:05:09;8.70;;;6.53;;
5900;SDS011;2976;49.764;9.796;2023-06-26T12:07:35;8.60;;;6.50;;
5900;SDS011;2976;49.764;9.796;2023-06-26T12:10:01;9.07;;;6.40;;
5900;SDS011;2976;49.764;9.796;2023-06-26T12:12:28;7.20;;;6.50;;
5900;SDS011;2976;49.764;9.796;2023-06-26T12:14:53;10.50;;;7.40;;
5900;SDS011;2976;49.764;9.796;2023-06-26T12:17:22;8.40;;;6.80;;
5900;SDS011;2976;49.764;9.796;2023-06-26T12:19:50;6.57;;;5.80;;
5900;SDS011;2976;49.764;9.796;2023-06-26T12:22:16;7.50;;;6.47;;
5900;SDS011;2976;49.764;9.796;2023-06-26T12:24:43;9.80;;;5.90;;
5900;SDS011;2976;49.764;9.796;2023-06-26T12:27:10;12.93;;;7.47;;
5900;SDS011;2976;49.764;9.796;2023-06-26T12:29:38;8.93;;;7.17;;
5900;SDS011;2976;49.764;9.796;2023-06-26T12:32:08;7.60;;;6.90;;
5900;SDS011;2976;49.764;9.796;2023-06-26T12:34:35;10.83;;;7.07;;
5900;SDS011;2976;49.764;9.796;2023-06-26T12:37:09;7.93;;;7.10;;
5900;SDS011;2976;49.764;9.796;2023-06-26T12:39:49;12.40;;;7.43;;
5900;SDS011;2976;49.764;9.796;2023-06-26T12:42:22;7.77;;;7.03;;
5900;SDS011;2976;49.764;9.796;2023-06-26T12:44:49;10.80;;;7.10;;
5900;SDS011;2976;49.764;9.796;2023-06-26T12:47:15;7.37;;;6.57;;
5900;SDS011;2976;49.764;9.796;2023-06-26T12:49:42;7.07;;;6.47;;
5900;SDS011;2976;49.764;9.796;2023-06-26T12:52:10;10.70;;;7.50;;
5900;SDS011;2976;49.764;9.796;2023-06-26T12:54:40;7.33;;;6.63;;
5900;SDS011;2976;49.764;9.796;2023-06-26T12:57:10;6.63;;;6.03;;
5900;SDS011;2976;49.764;9.796;2023-06-26T12:59:36;7.73;;;6.90;;
5900;SDS011;2976;49.764;9.796;2023-06-26T13:02:02;7.50;;;6.80;;
5900;SDS011;2976;49.764;9.796;2023-06-26T13:04:28;11.13;;;7.40;;
5900;SDS011;2976;49.764;9.796;2023-06-26T13:06:54;7.40;;;6.07;;
5900;SDS011;2976;49.764;9.796;2023-06-26T13:09:20;7.93;;;7.07;;
5900;SDS011;2976;49.764;9.796;2023-06-26T13:11:47;7.80;;;6.10;;
5900;SDS011;2976;49.764;9.796;2023-06-26T13:14:13;11.47;;;6.20;;
5900;SDS011;2976;49.764;9.796;2023-06-26T13:16:39;7.50;;;6.30;;
5900;SDS011;2976;49.764;9.796;2023-06-26T13:19:05;6.83;;;6.20;;
5900;SDS011;2976;49.764;9.796;2023-06-26T13:21:31;7.63;;;6.27;;
5900;SDS011;2976;49.764;9.796;2023-06-26T13:23:58;6.03;;;5.50;;
5900;SDS011;2976;49.764;9.796;2023-06-26T13:26:24;9.60;;;6.80;;
5900;SDS011;2976;49.764;9.796;2023-06-26T13:28:51;13.53;;;6.87;;
5900;SDS011;2976;49.764;9.796;2023-06-26T13:31:17;7.90;;;6.40;;
5900;SDS011;2976;49.764;9.796;2023-06-26T13:33:43;6.33;;;5.73;;
5900;SDS011;2976;49.764;9.796;2023-06-26T13:36:09;7.00;;;6.30;;
5900;SDS011;2976;49.764;9.796;2023-06-26T13:38:35;7.80;;;6.53;;
5900;SDS011;2976;49.764;9.796;2023-06-26T13:41:01;9.60;;;7.07;;
5900;SDS011;2976;49.764;9.796;2023-06-26T13:43:27;10.07;;;6.87;;
5900;SDS011;2976;49.764;9.796;2023-06-26T13:45:53;7.23;;;6.53;;
5900;SDS011;2976;49.764;9.796;2023-06-26T13:48:20;6.60;;;6.00;;
5900;SDS011;2976;49.764;9.796;2023-06-26T13:50:45;5.90;;;5.30;;
5900;SDS011;2976;49.764;9.796;2023-06-26T13:53:12;7.80;;;7.00;;
5900;SDS011;2976;49.764;9.796;2023-06-26T13:55:39;7.73;;;6.90;;
5900;SDS011;2976;49.764;9.796;2023-06-26T13:58:05;7.77;;;7.03;;
5900;SDS011;2976;49.764;9.796;2023-06-26T14:00:31;7.67;;;6.07;;
5900;SDS011;2976;49.764;9.796;2023-06-26T14:02:58;7.30;;;6.30;;
5900;SDS011;2976;49.764;9.796;2023-06-26T14:05:28;6.43;;;5.83;;
5900;SDS011;2976;49.764;9.796;2023-06-26T14:07:56;6.23;;;5.63;;
5900;SDS011;2976;49.764;9.796;2023-06-26T14:10:22;6.73;;;5.90;;
5900;SDS011;2976;49.764;9.796;2023-06-26T14:12:48;10.43;;;5.90;;
5900;SDS011;2976;49.764;9.796;2023-06-26T14:15:14;7.10;;;6.40;;
5900;SDS011;2976;49.764;9.796;2023-06-26T14:17:40;9.17;;;6.30;;
5900;SDS011;2976;49.764;9.796;2023-06-26T14:20:06;8.63;;;6.50;;
5900;SDS011;2976;49.764;9.796;2023-06-26T14:22:39;6.60;;;5.37;;
5900;SDS011;2976;49.764;9.796;2023-06-26T14:25:05;8.20;;;6.43;;
5900;SDS011;2976;49.764;9.796;2023-06-26T14:27:32;6.57;;;5.80;;
5900;SDS011;2976;49.764;9.796;2023-06-26T14:29:57;7.00;;;6.30;;
5900;SDS011;2976;49.764;9.796;2023-06-26T14:32:23;7.07;;;6.07;;
5900;SDS011;2976;49.764;9.796;2023-06-26T14:34:48;8.10;;;6.27;;
5900;SDS011;2976;49.764;9.796;2023-06-26T14:37:14;6.20;;;5.63;;
5900;SDS011;2976;49.764;9.796;2023-06-26T14:39:39;8.17;;;5.60;;
5900;SDS011;2976;49.764;9.796;2023-06-26T14:42:05;6.07;;;5.37;;
5900;SDS011;2976;49.764;9.796;2023-06-26T14:44:30;6.20;;;5.60;;
5900;SDS011;2976;49.764;9.796;2023-06-26T14:46:56;5.47;;;4.97;;
5900;SDS011;2976;49.764;9.796;2023-06-26T14:49:21;6.23;;;5.50;;
5900;SDS011;2976;49.764;9.796;2023-06-26T14:51:47;5.73;;;5.23;;
5900;SDS011;2976;49.764;9.796;2023-06-26T14:54:12;8.60;;;5.67;;
5900;SDS011;2976;49.764;9.796;2023-06-26T14:56:38;8.63;;;6.50;;
5900;SDS011;2976;49.764;9.796;2023-06-26T14:59:04;6.70;;;5.70;;
5900;SDS011;2976;49.764;9.796;2023-06-26T15:01:32;15.03;;;5.97;;
5900;SDS011;2976;49.764;9.796;2023-06-26T15:03:58;5.60;;;5.10;;
5900;SDS011;2976;49.764;9.796;2023-06-26T15:06:23;6.00;;;5.50;;
5900;SDS011;2976;49.764;9.796;2023-06-26T15:08:49;9.80;;;6.00;;
5900;SDS011;2976;49.764;9.796;2023-06-26T15:11:14;5.33;;;4.83;;
5900;SDS011;2976;49.764;9.796;2023-06-26T15:13:40;8.10;;;6.30;;
5900;SDS011;2976;49.764;9.796;2023-06-26T15:16:05;7.30;;;5.93;;
5900;SDS011;2976;49.764;9.796;2023-06-26T15:18:31;10.23;;;6.40;;
5900;SDS011;2976;49.764;9.796;2023-06-26T15:20:56;7.97;;;6.00;;
5900;SDS011;2976;49.764;9.796;2023-06-26T15:23:22;12.27;;;5.60;;
5900;SDS011;2976;49.764;9.796;2023-06-26T15:25:47;6.23;;;5.50;;
5900;SDS011;2976;49.764;9.796;2023-06-26T15:28:13;9.70;;;6.20;;